| time (UTC) | temp F | wind direction | speed knots | gust knots | rain 1hr in | rain 24hr in | rain mn in | humidity % | barometer mb |
| 20260906223737 | 97 | 131 | 1.7 | 2.6 | 0.00 | 0.00 | 0.00 | 41 | 1010.6 |
| 20260906223221 | 97 | 220 | 0.9 | 1.7 | 0.00 | 0.00 | 0.00 | 41 | 1010.7 |
| 20260906222713 | 98 | 116 | 3.5 | 5.2 | 0.00 | 0.00 | 0.00 | 40 | 1010.7 |
| 20260906222206 | 98 | 94 | 0.9 | 1.7 | 0.00 | 0.00 | 0.00 | 41 | 1010.9 |
| 20260906221704 | 97 | 89 | 2.6 | 3.5 | 0.00 | 0.00 | 0.00 | 41 | 1010.8 |
| 20260906221158 | 97 | 98 | 0.0 | 0.0 | 0.00 | 0.00 | 0.00 | 42 | 1010.7 |
| 20260906220648 | 97 | 129 | 1.7 | 1.7 | 0.00 | 0.00 | 0.00 | 41 | 1010.8 |
| 20260906220142 | 98 | 82 | 1.7 | 1.7 | 0.00 | 0.00 | 0.00 | 41 | 1010.9 |
| 20260906215636 | 98 | 57 | 3.5 | 5.2 | 0.00 | 0.00 | 0.00 | 41 | 1010.7 |
| 20260906215135 | 98 | 142 | 0.9 | 0.9 | 0.00 | 0.00 | 0.00 | 42 | 1010.5 |
| 20260906214620 | 98 | 91 | 1.7 | 2.6 | 0.00 | 0.00 | 0.00 | 42 | 1010.8 |
| 20260906214112 | 97 | 91 | 1.7 | 1.7 | 0.00 | 0.00 | 0.00 | 41 | 1011.0 |
| 20260906213605 | 98 | 145 | 2.6 | 3.5 | 0.00 | 0.00 | 0.00 | 42 | 1011.0 |
| 20260906213101 | 97 | 94 | 0.9 | 0.9 | 0.00 | 0.00 | 0.00 | 42 | 1011.0 |
| 20260906212551 | 97 | 93 | 0.9 | 1.7 | 0.00 | 0.00 | 0.00 | 42 | 1010.9 |
| 20260906212037 | 97 | 93 | 1.7 | 2.6 | 0.00 | 0.00 | 0.00 | 42 | 1011.1 |
| 20260906211529 | 97 | 107 | 2.6 | 3.5 | 0.00 | 0.00 | 0.00 | 43 | 1011.3 |
| 20260906211023 | 98 | 94 | 0.9 | 1.7 | 0.00 | 0.00 | 0.00 | 43 | 1011.3 |
| 20260906210517 | 97 | 82 | 1.7 | 2.6 | 0.00 | 0.00 | 0.00 | 42 | 1011.3 |
| 20260906210016 | 98 | 125 | 1.7 | 3.5 | 0.00 | 0.00 | 0.00 | 42 | 1011.6 |
| 20260906205510 | 98 | 83 | 0.9 | 1.7 | 0.00 | 0.00 | 0.00 | 43 | 1011.6 |
| 20260906204959 | 98 | 87 | 3.5 | 5.2 | 0.00 | 0.00 | 0.00 | 43 | 1011.6 |
| 20260906204453 | 98 | 130 | 1.7 | 2.6 | 0.00 | 0.00 | 0.00 | 43 | 1011.5 |
| 20260906203947 | 98 | 122 | 0.9 | 1.7 | 0.00 | 0.00 | 0.00 | 42 | 1011.7 |
| 20260906203434 | 98 | 144 | 3.5 | 3.5 | 0.00 | 0.00 | 0.00 | 42 | 1011.8 |
| 20260906202912 | 98 | 91 | 0.9 | 1.7 | 0.00 | 0.00 | 0.00 | 42 | 1011.7 |
| 20260906202404 | 98 | 92 | 1.7 | 2.6 | 0.00 | 0.00 | 0.00 | 42 | 1011.9 |
| 20260906201858 | 98 | 114 | 2.6 | 2.6 | 0.00 | 0.00 | 0.00 | 42 | 1011.9 |
| 20260906201352 | 98 | 113 | 0.9 | 1.7 | 0.00 | 0.00 | 0.00 | 42 | 1012.0 |
| 20260906200847 | 97 | 162 | 1.7 | 3.5 | 0.00 | 0.00 | 0.00 | 41 | 1011.9 |
| 20260906200346 | 98 | 128 | 0.9 | 2.6 | 0.00 | 0.00 | 0.00 | 42 | 1012.1 |
| 20260906195835 | 98 | 168 | 1.7 | 1.7 | 0.00 | 0.00 | 0.00 | 43 | 1012.1 |
| 20260906195329 | 98 | 106 | 1.7 | 2.6 | 0.00 | 0.00 | 0.00 | 43 | 1012.2 |
| 20260906194821 | 98 | 105 | 1.7 | 2.6 | 0.00 | 0.00 | 0.00 | 43 | 1012.4 |
| 20260906194318 | 98 | 108 | 1.7 | 1.7 | 0.00 | 0.00 | 0.00 | 43 | 1012.4 |
| 20260906193812 | 98 | 145 | 3.5 | 5.2 | 0.00 | 0.00 | 0.00 | 44 | 1012.4 |
| 20260906193251 | 97 | 135 | 0.0 | 0.0 | 0.00 | 0.00 | 0.00 | 45 | 1012.3 |
| 20260906192734 | 97 | 91 | 0.9 | 0.9 | 0.00 | 0.00 | 0.00 | 44 | 1012.4 |
| 20260906192225 | 98 | 129 | 0.9 | 0.9 | 0.00 | 0.00 | 0.00 | 44 | 1012.6 |
| 20260906191714 | 98 | 110 | 2.6 | 2.6 | 0.00 | 0.00 | 0.00 | 44 | 1012.6 |
| 20260906191213 | 97 | 97 | 0.0 | 0.9 | 0.00 | 0.00 | 0.00 | 45 | 1012.7 |
| 20260906190656 | 97 | 77 | 2.6 | 3.5 | 0.00 | 0.00 | 0.00 | 44 | 1012.9 |
| 20260906190145 | 97 | 96 | 0.9 | 0.9 | 0.00 | 0.00 | 0.00 | 46 | 1012.9 |
| 20260906185634 | 97 | 39 | 0.9 | 0.9 | 0.00 | 0.00 | 0.00 | 44 | 1012.7 |
| 20260906185128 | 97 | 26 | 1.7 | 3.5 | 0.00 | 0.00 | 0.00 | 45 | 1012.7 |
| 20260906184620 | 97 | 109 | 2.6 | 3.5 | 0.00 | 0.00 | 0.00 | 46 | 1013.0 |
| 20260906184117 | 98 | 109 | 1.7 | 1.7 | 0.00 | 0.00 | 0.00 | 46 | 1013.1 |
| 20260906183609 | 97 | 109 | 1.7 | 1.7 | 0.00 | 0.00 | 0.00 | 47 | 1012.9 |
| 20260906183055 | 97 | 88 | 1.7 | 2.6 | 0.00 | 0.00 | 0.00 | 47 | 1012.9 |
| 20260906182545 | 97 | 130 | 2.6 | 3.5 | 0.00 | 0.00 | 0.00 | 46 | 1013.3 |
| 20260906182043 | 97 | 50 | 1.7 | 2.6 | 0.00 | 0.00 | 0.00 | 45 | 1013.4 |
| 20260906181537 | 98 | 98 | 0.0 | 0.0 | 0.00 | 0.00 | 0.00 | 45 | 1013.3 |
| 20260906181032 | 98 | 129 | 1.7 | 2.6 | 0.00 | 0.00 | 0.00 | 45 | 1013.4 |
| 20260906180521 | 97 | 104 | 4.3 | 6.1 | 0.00 | 0.00 | 0.00 | 45 | 1013.3 |
| 20260906180020 | 97 | 100 | 0.9 | 0.9 | 0.00 | 0.00 | 0.00 | 46 | 1013.3 |
| 20260906175509 | 96 | 75 | 1.7 | 1.7 | 0.00 | 0.00 | 0.00 | 47 | 1013.7 |
| 20260906175003 | 97 | 104 | 0.9 | 0.9 | 0.00 | 0.00 | 0.00 | 46 | 1013.8 |
| 20260906174455 | 97 | 210 | 3.5 | 3.5 | 0.00 | 0.00 | 0.00 | 45 | 1013.9 |
| 20260906173947 | 97 | 121 | 1.7 | 1.7 | 0.00 | 0.00 | 0.00 | 46 | 1013.8 |
| 20260906173442 | 96 | 54 | 1.7 | 2.6 | 0.00 | 0.00 | 0.00 | 47 | 1013.9 |
| 20260906172929 | 97 | 116 | 3.5 | 5.2 | 0.00 | 0.00 | 0.00 | 46 | 1013.9 |
| 20260906172421 | 97 | 128 | 0.0 | 0.9 | 0.00 | 0.00 | 0.00 | 48 | 1014.1 |
| 20260906171912 | 97 | 95 | 0.9 | 0.9 | 0.00 | 0.00 | 0.00 | 47 | 1014.2 |
| 20260906171402 | 96 | 116 | 2.6 | 2.6 | 0.00 | 0.00 | 0.00 | 47 | 1014.3 |
| 20260906170854 | 96 | 200 | 2.6 | 3.5 | 0.00 | 0.00 | 0.00 | 47 | 1014.1 |
| 20260906170346 | 97 | 203 | 0.9 | 2.6 | 0.00 | 0.00 | 0.00 | 47 | 1014.4 |
| 20260906165837 | 96 | 82 | 0.0 | 0.0 | 0.00 | 0.00 | 0.00 | 48 | 1014.4 |
| 20260906165331 | 96 | 79 | 0.9 | 1.7 | 0.00 | 0.00 | 0.00 | 48 | 1014.5 |
| 20260906164825 | 96 | 81 | 3.5 | 6.1 | 0.00 | 0.00 | 0.00 | 48 | 1014.4 |
| 20260906164319 | 95 | 110 | 0.9 | 1.7 | 0.00 | 0.00 | 0.00 | 48 | 1014.4 |
| 20260906163806 | 95 | 99 | 1.7 | 1.7 | 0.00 | 0.00 | 0.00 | 49 | 1014.4 |
| 20260906163244 | 95 | 145 | 2.6 | 3.5 | 0.00 | 0.00 | 0.00 | 48 | 1014.5 |
| 20260906162737 | 95 | 61 | 0.9 | 2.6 | 0.00 | 0.00 | 0.00 | 49 | 1014.2 |
| 20260906162236 | 95 | 137 | 3.5 | 5.2 | 0.00 | 0.00 | 0.00 | 50 | 1014.1 |
| 20260906161725 | 95 | 122 | 1.7 | 2.6 | 0.00 | 0.00 | 0.00 | 50 | 1014.2 |
| 20260906161219 | 94 | 101 | 0.0 | 0.9 | 0.00 | 0.00 | 0.00 | 50 | 1014.2 |
| 20260906160717 | 94 | 84 | 2.6 | 3.5 | 0.00 | 0.00 | 0.00 | 51 | 1014.1 |
| 20260906160204 | 95 | 83 | 0.9 | 0.9 | 0.00 | 0.00 | 0.00 | 51 | 1014.3 |
| 20260906155651 | 94 | 108 | 1.7 | 1.7 | 0.00 | 0.00 | 0.00 | 53 | 1014.3 |
| 20260906155135 | 95 | 96 | 0.9 | 0.9 | 0.00 | 0.00 | 0.00 | 53 | 1014.2 |
| 20260906154629 | 95 | 44 | 0.0 | 0.9 | 0.00 | 0.00 | 0.00 | 53 | 1014.1 |
| 20260906154118 | 93 | 89 | 2.6 | 3.5 | 0.00 | 0.00 | 0.00 | 55 | 1014.1 |
| 20260906153617 | 95 | 128 | 1.7 | 1.7 | 0.00 | 0.00 | 0.00 | 54 | 1014.2 |
| 20260906153102 | 94 | 120 | 0.0 | 0.9 | 0.00 | 0.00 | 0.00 | 57 | 1014.1 |
| 20260906152556 | 94 | 93 | 0.9 | 0.9 | 0.00 | 0.00 | 0.00 | 59 | 1014.0 |
| 20260906152050 | 93 | 92 | 0.9 | 1.7 | 0.00 | 0.00 | 0.00 | 59 | 1013.9 |
| 20260906151536 | 93 | 94 | 0.0 | 0.9 | 0.00 | 0.00 | 0.00 | 61 | 1014.0 |
| 20260906151024 | 91 | 99 | 0.0 | 0.0 | 0.00 | 0.00 | 0.00 | 63 | 1014.1 |
| 20260906150511 | 91 | 92 | 2.6 | 3.5 | 0.00 | 0.00 | 0.00 | 64 | 1013.9 |
| 20260906150005 | 92 | 122 | 0.9 | 0.9 | 0.00 | 0.00 | 0.00 | 62 | 1013.8 |
| 20260906145459 | 91 | 103 | 0.0 | 0.0 | 0.00 | 0.00 | 0.00 | 63 | 1013.9 |
| 20260906144953 | 91 | 98 | 0.0 | 0.9 | 0.00 | 0.00 | 0.00 | 65 | 1013.9 |
| 20260906144442 | 91 | 104 | 0.0 | 0.9 | 0.00 | 0.00 | 0.00 | 64 | 1014.1 |
| 20260906143936 | 89 | 95 | 0.0 | 0.0 | 0.00 | 0.00 | 0.00 | 66 | 1014.0 |
| 20260906143430 | 90 | 95 | 0.0 | 0.9 | 0.00 | 0.00 | 0.00 | 66 | 1013.9 |
| 20260906142929 | 89 | 109 | 0.0 | 0.0 | 0.00 | 0.00 | 0.00 | 67 | 1014.1 |
| 20260906142426 | 89 | 97 | 0.9 | 0.9 | 0.00 | 0.00 | 0.00 | 67 | 1014.1 |
| 20260906141918 | 89 | 93 | 0.0 | 0.0 | 0.00 | 0.00 | 0.00 | 69 | 1014.1 |
| 20260906141402 | 87 | 105 | 0.0 | 0.0 | 0.00 | 0.00 | 0.00 | 69 | 1014.4 |
| 20260906140857 | 86 | 112 | 1.7 | 1.7 | 0.00 | 0.00 | 0.00 | 71 | 1014.2 |
| 20260906140351 | 86 | 92 | 0.0 | 0.0 | 0.00 | 0.00 | 0.00 | 74 | 1014.0 |
| 20260906135850 | 85 | 91 | 0.9 | 0.9 | 0.00 | 0.00 | 0.00 | 74 | 1014.0 |
| 20260906135332 | 85 | 94 | 0.9 | 0.9 | 0.00 | 0.00 | 0.00 | 75 | 1014.0 |
| 20260906134809 | 86 | 90 | 0.9 | 0.9 | 0.00 | 0.00 | 0.00 | 74 | 1013.8 |
| 20260906134258 | 86 | 98 | 0.0 | 0.0 | 0.00 | 0.00 | 0.00 | 72 | 1014.0 |
| 20260906133751 | 85 | 97 | 0.0 | 0.0 | 0.00 | 0.00 | 0.00 | 74 | 1014.0 |
| 20260906133237 | 85 | 97 | 0.0 | 0.0 | 0.00 | 0.00 | 0.00 | 75 | 1014.0 |
| 20260906132729 | 86 | 113 | 0.9 | 0.9 | 0.00 | 0.00 | 0.00 | 74 | 1013.9 |
| 20260906132219 | 86 | 95 | 0.0 | 0.0 | 0.00 | 0.00 | 0.00 | 74 | 1014.0 |
| 20260906131717 | 84 | 94 | 0.0 | 0.0 | 0.00 | 0.00 | 0.00 | 75 | 1014.0 |
| 20260906131206 | 84 | 88 | 0.0 | 0.9 | 0.00 | 0.00 | 0.00 | 76 | 1014.1 |
| 20260906130654 | 83 | 94 | 0.0 | 0.0 | 0.00 | 0.00 | 0.00 | 79 | 1013.9 |
| 20260906130133 | 82 | 112 | 0.9 | 0.9 | 0.00 | 0.00 | 0.00 | 81 | 1014.0 |
| 20260906125627 | 80 | 97 | 0.0 | 0.0 | 0.00 | 0.00 | 0.00 | 83 | 1013.8 |
| 20260906125121 | 80 | 102 | 0.9 | 0.9 | 0.00 | 0.00 | 0.00 | 83 | 1013.8 |
| 20260906124608 | 80 | 96 | 0.0 | 0.0 | 0.00 | 0.00 | 0.00 | 85 | 1013.8 |
| 20260906124052 | 79 | 98 | 0.0 | 0.0 | 0.00 | 0.00 | 0.00 | 86 | 1013.7 |
| 20260906123539 | 78 | 100 | 0.0 | 0.0 | 0.00 | 0.00 | 0.00 | 87 | 1013.5 |
| 20260906123021 | 77 | 98 | 0.0 | 0.0 | 0.00 | 0.00 | 0.00 | 89 | 1013.7 |
| 20260906122516 | 77 | 99 | 0.0 | 0.0 | 0.00 | 0.00 | 0.00 | 89 | 1013.7 |
| 20260906122009 | 77 | 97 | 0.0 | 0.0 | 0.00 | 0.00 | 0.00 | 89 | 1013.5 |
| 20260906121503 | 77 | 98 | 0.0 | 0.0 | 0.00 | 0.00 | 0.00 | 89 | 1013.5 |
| 20260906120958 | 77 | 100 | 0.0 | 0.0 | 0.00 | 0.00 | 0.00 | 89 | 1013.5 |
| 20260906120452 | 77 | 100 | 0.0 | 0.0 | 0.00 | 0.00 | 0.00 | 89 | 1013.5 |
| 20260906115946 | 77 | 100 | 0.0 | 0.0 | 0.00 | 0.00 | 0.00 | 88 | 1013.3 |
| 20260906115440 | 77 | 100 | 0.0 | 0.0 | 0.00 | 0.00 | 0.00 | 88 | 1013.3 |
| 20260906114934 | 77 | 103 | 0.0 | 0.0 | 0.00 | 0.00 | 0.00 | 88 | 1013.2 |
| 20260906114428 | 77 | 99 | 0.0 | 0.0 | 0.00 | 0.00 | 0.00 | 88 | 1013.2 |
| 20260906113922 | 77 | 99 | 0.0 | 0.0 | 0.00 | 0.00 | 0.00 | 88 | 1013.1 |
| 20260906010817 | 92 | 89 | 1.7 | 1.7 | 0.00 | 0.00 | 0.00 | 51 | 1011.0 |
| 20260906010311 | 93 | 91 | 1.7 | 2.6 | 0.00 | 0.00 | 0.00 | 50 | 1010.9 |
| 20260906005805 | 94 | 95 | 0.9 | 1.7 | 0.00 | 0.00 | 0.00 | 47 | 1010.7 |
| 20260906005259 | 94 | 99 | 0.9 | 0.9 | 0.00 | 0.00 | 0.00 | 47 | 1010.7 |
| 20260906004758 | 94 | 108 | 0.0 | 0.9 | 0.00 | 0.00 | 0.00 | 46 | 1010.6 |
| 20260906004247 | 94 | 94 | 0.0 | 0.9 | 0.00 | 0.00 | 0.00 | 46 | 1010.4 |
| 20260906003740 | 94 | 94 | 0.0 | 0.0 | 0.00 | 0.00 | 0.00 | 46 | 1010.6 |
| 20260906003234 | 94 | 97 | 0.0 | 0.0 | 0.00 | 0.00 | 0.00 | 45 | 1010.5 |
| 20260906002733 | 95 | 94 | 0.9 | 0.9 | 0.00 | 0.00 | 0.00 | 45 | 1010.6 |
| 20260906002222 | 95 | 94 | 0.0 | 0.0 | 0.00 | 0.00 | 0.00 | 45 | 1010.7 |
| 20260906001716 | 95 | 67 | 0.9 | 1.7 | 0.00 | 0.00 | 0.00 | 44 | 1010.5 |
| 20260906001210 | 95 | 95 | 0.0 | 0.0 | 0.00 | 0.00 | 0.00 | 44 | 1010.7 |
| 20260906000705 | 95 | 96 | 0.0 | 0.9 | 0.00 | 0.00 | 0.00 | 44 | 1010.6 |
| 20260906000152 | 96 | 118 | 3.5 | 3.5 | 0.00 | 0.00 | 0.00 | 44 | 1010.5 |
| 20260905235641 | 96 | 108 | 0.0 | 0.0 | 0.00 | 0.00 | 0.00 | 44 | 1010.6 |
| 20260905235130 | 96 | 100 | 0.0 | 0.0 | 0.00 | 0.00 | 0.00 | 43 | 1010.6 |
| 20260905234624 | 96 | 94 | 0.9 | 0.9 | 0.00 | 0.00 | 0.00 | 43 | 1010.4 |
| 20260905234118 | 96 | 109 | 0.9 | 0.9 | 0.00 | 0.00 | 0.00 | 43 | 1010.3 |
| 20260905233608 | 96 | 103 | 0.9 | 0.9 | 0.00 | 0.00 | 0.00 | 43 | 1010.4 |
| 20260905233102 | 96 | 90 | 0.9 | 0.9 | 0.00 | 0.00 | 0.00 | 42 | 1010.5 |
| 20260905232552 | 96 | 83 | 1.7 | 2.6 | 0.00 | 0.00 | 0.00 | 43 | 1010.4 |
| 20260905232045 | 97 | 111 | 0.9 | 1.7 | 0.00 | 0.00 | 0.00 | 42 | 1010.4 |
| 20260905231531 | 97 | 100 | 1.7 | 2.6 | 0.00 | 0.00 | 0.00 | 42 | 1010.6 |
| 20260905231016 | 97 | 91 | 1.7 | 1.7 | 0.00 | 0.00 | 0.00 | 42 | 1010.5 |
| 20260905230510 | 97 | 99 | 0.0 | 0.0 | 0.00 | 0.00 | 0.00 | 42 | 1010.6 |
| 20260905230004 | 97 | 103 | 1.7 | 2.6 | 0.00 | 0.00 | 0.00 | 41 | 1010.6 |
| 20260905225458 | 97 | 154 | 1.7 | 2.6 | 0.00 | 0.00 | 0.00 | 42 | 1010.4 |
| 20260905224952 | 97 | 96 | 0.0 | 0.9 | 0.00 | 0.00 | 0.00 | 42 | 1010.5 |
| 20260905224446 | 97 | 96 | 0.9 | 0.9 | 0.00 | 0.00 | 0.00 | 41 | 1010.4 |
| 20260905223933 | 97 | 107 | 1.7 | 1.7 | 0.00 | 0.00 | 0.00 | 41 | 1010.4 |